createdAt,value
2019-05-29T00:00:43.486Z,5.00
2019-05-29T00:03:12.468Z,4.57
2019-05-29T00:05:40.530Z,5.20
2019-05-29T00:08:08.475Z,5.43
2019-05-29T00:10:36.430Z,6.00
2019-05-29T00:13:04.332Z,6.43
2019-05-29T00:15:32.258Z,6.43
2019-05-29T00:18:00.135Z,5.47
2019-05-29T00:20:28.051Z,5.70
2019-05-29T00:22:56.012Z,5.03
2019-05-29T00:25:23.916Z,5.80
2019-05-29T00:27:51.922Z,5.60
2019-05-29T00:30:20.143Z,5.80
2019-05-29T00:32:48.280Z,6.07
2019-05-29T00:35:16.460Z,5.30
2019-05-29T00:37:44.468Z,5.73
2019-05-29T00:40:13.353Z,5.20
2019-05-29T00:42:41.360Z,5.90
2019-05-29T00:45:11.475Z,5.70
2019-05-29T00:47:39.415Z,4.80
2019-05-29T00:50:08.386Z,5.50
2019-05-29T00:52:36.314Z,5.47
2019-05-29T00:55:04.967Z,5.00
2019-05-29T00:57:32.889Z,5.10
2019-05-29T01:00:00.848Z,5.50
2019-05-29T01:02:28.804Z,5.00
2019-05-29T01:04:56.801Z,6.33
2019-05-29T01:07:24.813Z,5.50
2019-05-29T01:09:52.979Z,5.73
2019-05-29T01:12:21.363Z,7.20
2019-05-29T01:14:50.605Z,6.20
2019-05-29T01:17:19.741Z,6.13
2019-05-29T01:19:47.780Z,6.10
2019-05-29T01:22:18.696Z,7.40
2019-05-29T01:24:47.078Z,6.63
2019-05-29T01:27:15.151Z,6.60
2019-05-29T01:29:43.186Z,6.80
2019-05-29T01:32:11.057Z,6.90
2019-05-29T01:34:38.947Z,7.03
2019-05-29T01:37:06.776Z,7.67
2019-05-29T01:39:34.625Z,8.57
2019-05-29T01:42:02.483Z,8.37
2019-05-29T01:44:30.457Z,8.53
2019-05-29T01:46:58.354Z,8.03
2019-05-29T01:49:26.262Z,9.50
2019-05-29T01:51:54.152Z,8.30
2019-05-29T01:54:22.059Z,8.90
2019-05-29T01:56:49.975Z,8.40
2019-05-29T01:59:17.852Z,8.30
2019-05-29T02:01:45.724Z,8.37
2019-05-29T02:04:13.600Z,8.27
2019-05-29T02:06:41.489Z,7.67
2019-05-29T02:09:09.365Z,8.77
2019-05-29T02:11:37.248Z,8.30
2019-05-29T02:14:05.245Z,7.57
2019-05-29T02:16:33.116Z,7.53
2019-05-29T02:19:01.242Z,6.97
2019-05-29T02:21:29.077Z,7.93
2019-05-29T02:23:56.951Z,7.40
2019-05-29T02:26:24.815Z,6.67
2019-05-29T02:31:19.680Z,7.40
2019-05-29T02:33:49.236Z,7.07
2019-05-29T02:36:20.214Z,7.07
2019-05-29T02:38:48.218Z,6.77
2019-05-29T02:41:19.134Z,6.17
2019-05-29T02:43:47.259Z,6.00
2019-05-29T02:46:15.120Z,6.63
2019-05-29T02:48:43.067Z,6.50
2019-05-29T02:51:12.353Z,5.10
2019-05-29T02:53:40.483Z,6.07
2019-05-29T02:56:08.367Z,5.63
2019-05-29T02:58:36.404Z,5.63
2019-05-29T03:01:04.387Z,5.13
2019-05-29T03:03:39.141Z,5.10
2019-05-29T03:06:02.131Z,4.50
2019-05-29T03:08:32.487Z,5.00
2019-05-29T03:11:00.046Z,4.17
2019-05-29T03:13:29.838Z,4.93
2019-05-29T03:16:09.458Z,5.10
2019-05-29T03:18:28.055Z,5.03
2019-05-29T03:20:56.233Z,5.03
2019-05-29T03:23:24.326Z,3.97
2019-05-29T03:25:52.260Z,4.20
2019-05-29T03:28:20.146Z,4.00
2019-05-29T03:30:48.080Z,4.13
2019-05-29T03:33:17.162Z,3.77
2019-05-29T03:35:47.828Z,3.63
2019-05-29T03:38:15.179Z,4.60
2019-05-29T03:40:43.040Z,4.30
2019-05-29T03:43:10.912Z,5.00
2019-05-29T03:45:38.717Z,4.30
2019-05-29T03:48:06.580Z,4.07
2019-05-29T03:50:34.908Z,4.60
2019-05-29T03:53:03.101Z,3.90
2019-05-29T03:55:31.549Z,3.63
2019-05-29T03:57:59.574Z,4.03
2019-05-29T04:00:34.243Z,4.20
2019-05-29T04:02:57.337Z,4.20
2019-05-29T04:05:26.697Z,4.13
2019-05-29T04:07:54.729Z,3.80
2019-05-29T04:10:29.538Z,4.10
2019-05-29T04:12:59.708Z,3.37
2019-05-29T04:15:33.733Z,4.10
2019-05-29T04:18:04.437Z,3.30
2019-05-29T04:20:35.885Z,3.17
2019-05-29T04:23:05.486Z,3.05
2019-05-29T04:25:40.566Z,3.13
2019-05-29T04:28:07.655Z,2.85
2019-05-29T04:30:36.490Z,3.75
2019-05-29T04:33:04.749Z,3.87
2019-05-29T04:35:32.736Z,4.53
2019-05-29T04:38:02.332Z,4.90
2019-05-29T04:40:30.628Z,4.65
2019-05-29T04:42:59.675Z,4.50
2019-05-29T04:45:28.953Z,4.00
2019-05-29T04:47:57.367Z,4.05
2019-05-29T04:50:25.306Z,4.00
2019-05-29T04:52:53.257Z,3.95
2019-05-29T04:55:21.187Z,4.10
2019-05-29T04:57:50.986Z,4.00
2019-05-29T05:00:19.090Z,5.28
2019-05-29T05:02:47.079Z,3.40
2019-05-29T05:05:15.105Z,3.30
2019-05-29T05:07:43.389Z,3.08
2019-05-29T05:10:11.758Z,3.07
2019-05-29T05:12:40.303Z,3.43
2019-05-29T05:15:08.589Z,2.50
2019-05-29T05:17:36.432Z,2.80
2019-05-29T05:20:05.394Z,2.53
2019-05-29T05:22:34.257Z,2.80
2019-05-29T05:25:02.695Z,3.10
2019-05-29T05:27:30.567Z,2.83
2019-05-29T05:29:58.482Z,2.33
2019-05-29T05:32:26.403Z,2.60
2019-05-29T05:34:54.402Z,2.33
2019-05-29T05:37:22.308Z,2.23
2019-05-29T05:39:50.536Z,2.57
2019-05-29T05:42:18.420Z,2.30
2019-05-29T05:44:46.328Z,2.87
2019-05-29T05:47:14.358Z,2.27
2019-05-29T05:49:42.732Z,2.27
2019-05-29T05:52:10.589Z,2.60
2019-05-29T05:54:39.564Z,2.20
2019-05-29T05:57:07.702Z,2.75
2019-05-29T05:59:35.782Z,2.57
2019-05-29T06:02:03.857Z,2.87
2019-05-29T06:04:31.874Z,2.50
2019-05-29T06:06:59.722Z,2.30
2019-05-29T06:09:27.592Z,3.93
2019-05-29T06:11:55.489Z,2.87
2019-05-29T06:14:23.487Z,2.57
2019-05-29T06:16:51.399Z,2.50
2019-05-29T06:19:19.411Z,3.00
2019-05-29T06:21:47.264Z,2.80
2019-05-29T06:24:15.187Z,2.67
2019-05-29T06:26:43.263Z,2.43
2019-05-29T06:29:11.301Z,2.23
2019-05-29T06:31:39.451Z,2.93
2019-05-29T06:34:07.375Z,2.90
2019-05-29T06:36:35.540Z,3.00
2019-05-29T06:39:06.865Z,3.40
2019-05-29T06:41:35.608Z,2.60
2019-05-29T06:44:03.649Z,3.00
2019-05-29T06:46:31.954Z,3.20
2019-05-29T06:49:01.117Z,2.60
2019-05-29T06:51:29.118Z,2.83
2019-05-29T06:53:57.082Z,2.43
2019-05-29T06:56:25.436Z,2.83
2019-05-29T06:58:53.299Z,2.70
2019-05-29T07:01:21.369Z,3.10
2019-05-29T07:03:49.308Z,2.70
2019-05-29T07:06:17.870Z,2.93
2019-05-29T07:08:48.280Z,2.67
2019-05-29T07:11:15.855Z,3.40
2019-05-29T07:13:48.346Z,3.17
2019-05-29T07:16:15.000Z,3.13
2019-05-29T07:19:20.620Z,3.20
2019-05-29T07:21:12.940Z,3.10
2019-05-29T07:23:41.255Z,3.77
2019-05-29T07:26:10.261Z,3.37
2019-05-29T07:28:55.525Z,3.90
2019-05-29T07:31:08.130Z,2.80
2019-05-29T07:33:36.999Z,3.33
2019-05-29T07:36:04.935Z,3.43
2019-05-29T07:38:32.860Z,3.93
2019-05-29T07:41:00.775Z,4.10
2019-05-29T07:43:28.680Z,3.97
2019-05-29T07:45:57.507Z,3.47
2019-05-29T07:48:25.568Z,3.67
2019-05-29T07:51:06.321Z,3.70
2019-05-29T07:53:23.562Z,3.70
2019-05-29T07:55:51.596Z,2.80
2019-05-29T07:58:20.031Z,3.20
2019-05-29T08:01:09.309Z,2.80
2019-05-29T08:03:18.480Z,3.97
2019-05-29T08:05:51.024Z,3.37
2019-05-29T08:08:16.502Z,3.60
2019-05-29T08:10:45.529Z,3.50
2019-05-29T08:13:13.661Z,3.77
2019-05-29T08:15:54.156Z,3.57
2019-05-29T08:18:11.545Z,4.17
2019-05-29T08:20:42.622Z,2.80
2019-05-29T08:23:10.520Z,3.47
2019-05-29T08:25:38.383Z,3.80
2019-05-29T08:28:06.378Z,4.00
2019-05-29T08:30:34.221Z,3.40
2019-05-29T08:33:02.219Z,2.93
2019-05-29T08:35:30.177Z,3.80
2019-05-29T08:37:58.211Z,3.80
2019-05-29T08:40:26.113Z,3.80
2019-05-29T08:42:54.060Z,3.87
2019-05-29T08:45:21.996Z,4.00
2019-05-29T08:47:51.889Z,3.57
2019-05-29T08:50:19.874Z,3.20
2019-05-29T08:52:48.145Z,4.10
2019-05-29T08:55:15.966Z,4.60
2019-05-29T08:57:46.115Z,3.40
2019-05-29T09:00:14.821Z,3.40
2019-05-29T09:02:42.955Z,5.20
2019-05-29T09:05:11.316Z,3.20
2019-05-29T09:07:39.361Z,3.37
2019-05-29T09:10:08.247Z,3.37
2019-05-29T09:12:36.162Z,3.37
2019-05-29T09:15:05.402Z,3.60
2019-05-29T09:17:34.557Z,4.00
2019-05-29T09:20:03.002Z,4.20
2019-05-29T09:22:31.309Z,5.63
2019-05-29T09:24:59.378Z,4.80
2019-05-29T09:27:27.558Z,4.00
2019-05-29T09:29:56.821Z,3.80
2019-05-29T09:32:46.224Z,4.40
2019-05-29T09:34:54.794Z,3.87
2019-05-29T09:37:22.777Z,3.67
2019-05-29T09:39:50.808Z,3.70
2019-05-29T09:42:20.324Z,3.67
2019-05-29T09:44:52.961Z,4.10
2019-05-29T09:47:22.227Z,4.23
2019-05-29T09:49:53.078Z,3.73
2019-05-29T09:52:21.138Z,3.30
2019-05-29T09:54:49.006Z,3.77
2019-05-29T09:57:16.911Z,3.83
2019-05-29T09:59:45.052Z,3.80
2019-05-29T10:02:12.902Z,3.60
2019-05-29T10:04:40.841Z,3.93
2019-05-29T10:07:08.998Z,3.80
2019-05-29T10:09:37.057Z,3.40
2019-05-29T10:12:06.766Z,4.00
2019-05-29T10:14:35.029Z,4.33
2019-05-29T10:17:11.094Z,4.07
2019-05-29T10:19:32.837Z,4.00
2019-05-29T10:22:03.600Z,3.60
2019-05-29T10:24:32.891Z,3.70
2019-05-29T10:27:02.723Z,4.07
2019-05-29T10:29:31.016Z,2.83
2019-05-29T10:31:59.029Z,2.90
2019-05-29T10:34:26.913Z,3.30
2019-05-29T10:36:54.935Z,2.90
2019-05-29T10:39:23.070Z,3.00
2019-05-29T10:41:51.045Z,2.53
2019-05-29T10:44:18.838Z,2.00
2019-05-29T10:46:49.458Z,2.93
2019-05-29T10:49:16.523Z,2.37
2019-05-29T10:52:00.255Z,3.17
2019-05-29T11:45:07.781Z,2.20
2019-05-29T11:47:35.766Z,2.13
2019-05-29T11:50:18.787Z,2.00
2019-05-29T11:52:43.050Z,1.87
2019-05-29T11:55:09.688Z,1.50
2019-05-29T11:57:39.737Z,1.30
2019-05-29T12:00:19.075Z,2.63
2019-05-29T12:02:38.415Z,1.67
2019-05-29T12:05:08.572Z,1.57
2019-05-29T12:07:37.485Z,1.83
2019-05-29T12:10:06.342Z,1.53
2019-05-29T12:12:34.618Z,1.43
2019-05-29T12:15:10.923Z,1.30
2019-05-29T12:17:33.774Z,1.60
2019-05-29T12:20:04.045Z,1.20
2019-05-29T12:22:31.587Z,1.40
2019-05-29T12:25:00.677Z,1.10
2019-05-29T12:27:28.625Z,1.40
2019-05-29T12:29:56.694Z,1.90
2019-05-29T12:32:24.668Z,1.60
2019-05-29T12:34:54.069Z,1.60
2019-05-29T12:37:22.323Z,1.37
2019-05-29T12:39:50.421Z,1.30
2019-05-29T12:42:18.335Z,1.23
2019-05-29T12:44:46.182Z,1.50
2019-05-29T12:47:14.138Z,1.73
2019-05-29T12:49:42.122Z,1.20
2019-05-29T12:52:10.356Z,1.73
2019-05-29T12:54:38.488Z,1.40
2019-05-29T12:57:06.693Z,1.30
2019-05-29T12:59:38.538Z,2.00
2019-05-29T13:02:07.017Z,1.23
2019-05-29T13:05:05.020Z,2.53
2019-05-29T13:07:05.079Z,1.80
2019-05-29T13:09:32.950Z,1.73
2019-05-29T13:12:00.863Z,4.70
2019-05-29T13:14:28.732Z,1.63
2019-05-29T13:16:56.764Z,1.60
2019-05-29T13:19:25.038Z,1.70
2019-05-29T13:21:52.905Z,1.47
2019-05-29T13:24:20.927Z,1.23
2019-05-29T13:26:48.851Z,1.17
2019-05-29T13:29:16.703Z,1.70
2019-05-29T13:31:44.937Z,1.50
2019-05-29T13:34:12.820Z,1.97
2019-05-29T13:36:40.766Z,1.33
2019-05-29T13:39:08.675Z,1.20
2019-05-29T13:41:36.658Z,1.60
2019-05-29T13:44:04.914Z,1.17
2019-05-29T13:46:32.802Z,1.60
2019-05-29T13:49:01.263Z,1.80
2019-05-29T13:51:29.170Z,1.67
2019-05-29T13:54:05.408Z,1.70
2019-05-29T13:56:27.007Z,1.83
2019-05-29T13:58:54.957Z,1.47
2019-05-29T14:01:23.866Z,1.80
2019-05-29T14:03:58.222Z,1.57
2019-05-29T14:06:26.157Z,1.13
2019-05-29T14:08:54.112Z,1.30
2019-05-29T14:11:21.983Z,0.90
2019-05-29T14:13:49.879Z,0.90
2019-05-29T14:16:17.963Z,1.10
2019-05-29T14:18:45.902Z,1.03
2019-05-29T14:21:14.378Z,1.13
2019-05-29T14:23:42.451Z,1.13
2019-05-29T14:26:10.474Z,0.90
2019-05-29T14:28:43.428Z,1.20
2019-05-29T14:31:12.160Z,1.23
2019-05-29T14:33:40.183Z,1.20
2019-05-29T14:36:09.261Z,1.20
2019-05-29T14:38:37.435Z,1.30
2019-05-29T14:41:08.058Z,1.10
2019-05-29T14:43:36.254Z,1.40
2019-05-29T14:46:05.940Z,1.13
2019-05-29T14:48:34.178Z,1.10
2019-05-29T14:51:03.625Z,1.20
2019-05-29T14:53:32.166Z,1.00
2019-05-29T14:56:00.084Z,1.30
2019-05-29T14:58:27.983Z,1.10
2019-05-29T15:00:55.924Z,1.23
2019-05-29T15:03:24.150Z,1.10
2019-05-29T15:05:52.038Z,1.03
2019-05-29T15:08:19.939Z,1.00
2019-05-29T15:10:47.935Z,0.80
2019-05-29T15:13:18.305Z,0.80
2019-05-29T15:15:46.348Z,0.90
2019-05-29T15:18:18.295Z,2.43
2019-05-29T15:20:45.577Z,2.03
2019-05-29T15:23:13.604Z,1.20
2019-05-29T15:25:41.676Z,1.20
2019-05-29T15:28:13.681Z,1.53
2019-05-29T15:30:39.509Z,1.10
2019-05-29T15:33:08.563Z,1.17
2019-05-29T15:35:36.633Z,1.03
2019-05-29T15:38:04.540Z,1.20
2019-05-29T15:40:32.574Z,2.50
2019-05-29T15:43:00.519Z,1.40
2019-05-29T15:45:31.677Z,2.90
2019-05-29T15:47:59.558Z,0.80
2019-05-29T15:50:27.637Z,1.23
2019-05-29T15:52:55.538Z,0.90
2019-05-29T15:55:32.099Z,1.00
2019-05-29T15:57:53.388Z,1.20
2019-05-29T16:00:21.870Z,1.10
2019-05-29T16:02:50.059Z,0.80
2019-05-29T16:05:19.370Z,1.43
2019-05-29T16:07:47.301Z,1.10
2019-05-29T16:10:20.598Z,1.40
2019-05-29T16:12:47.258Z,1.00
2019-05-29T16:15:17.393Z,1.00
2019-05-29T16:17:46.549Z,1.00
2019-05-29T16:20:16.361Z,0.90
2019-05-29T16:22:44.368Z,1.10
2019-05-29T16:25:14.957Z,1.10
2019-05-29T16:27:42.957Z,2.83
2019-05-29T16:30:15.430Z,2.60
2019-05-29T16:32:43.631Z,1.67
2019-05-29T16:35:13.064Z,1.27
2019-05-29T16:37:41.080Z,1.07
2019-05-29T16:40:09.596Z,1.07
2019-05-29T16:42:37.641Z,4.20
2019-05-29T16:45:08.413Z,1.00
2019-05-29T16:47:36.336Z,1.20
2019-05-29T16:50:05.441Z,2.50
2019-05-29T16:52:33.333Z,1.43
2019-05-29T16:55:01.398Z,0.90
2019-05-29T16:57:29.587Z,1.07
2019-05-29T16:59:57.853Z,1.00
2019-05-29T17:02:25.952Z,1.43
2019-05-29T17:04:54.255Z,1.00
2019-05-29T17:07:24.276Z,1.20
2019-05-29T17:09:53.419Z,1.37
2019-05-29T17:12:22.561Z,1.40
2019-05-29T17:14:50.611Z,1.47
2019-05-29T17:17:18.693Z,1.10
2019-05-29T17:19:46.593Z,1.10
2019-05-29T17:22:14.617Z,1.07
2019-05-29T17:24:42.653Z,1.10
2019-05-29T17:27:10.637Z,1.30
2019-05-29T17:29:38.583Z,1.27
2019-05-29T17:32:06.543Z,1.50
2019-05-29T17:34:37.174Z,1.53
2019-05-29T17:37:05.231Z,1.23
2019-05-29T17:39:33.159Z,1.83
2019-05-29T17:42:01.112Z,1.30
2019-05-29T17:44:29.025Z,1.20
2019-05-29T17:47:01.223Z,1.20
2019-05-29T17:49:34.483Z,1.27
2019-05-29T17:51:59.008Z,1.40
2019-05-29T17:54:26.974Z,1.03
2019-05-29T17:56:56.686Z,0.90
2019-05-29T17:59:24.702Z,1.10
2019-05-29T18:01:52.712Z,1.20
2019-05-29T18:04:20.807Z,1.50
2019-05-29T18:06:48.852Z,1.00
2019-05-29T18:09:17.196Z,1.00
2019-05-29T18:11:47.463Z,1.17
2019-05-29T18:14:15.622Z,1.03
2019-05-29T18:16:43.785Z,1.53
2019-05-29T18:19:11.745Z,1.27
2019-05-29T18:21:39.817Z,1.10
2019-05-29T18:24:07.845Z,1.10
2019-05-29T18:26:46.536Z,2.00
2019-05-29T18:29:05.977Z,1.07
2019-05-29T18:31:34.805Z,1.37
2019-05-29T18:34:02.700Z,1.13
2019-05-29T18:36:31.933Z,1.07
2019-05-29T18:39:00.329Z,1.17
2019-05-29T18:41:28.559Z,1.30
2019-05-29T18:43:56.561Z,1.13
2019-05-29T18:46:25.069Z,1.47
2019-05-29T18:48:53.450Z,1.30
2019-05-29T18:51:22.366Z,1.10
2019-05-29T18:53:50.511Z,0.90
2019-05-29T18:56:18.686Z,1.53
2019-05-29T18:58:47.882Z,1.20
2019-05-29T19:01:15.957Z,1.23
2019-05-29T19:03:44.038Z,1.50
2019-05-29T19:06:11.994Z,1.73
2019-05-29T19:08:39.967Z,1.30
2019-05-29T19:11:07.935Z,1.40
2019-05-29T19:13:39.118Z,1.73
2019-05-29T19:16:07.079Z,1.77
2019-05-29T19:18:35.129Z,1.90
2019-05-29T19:21:03.458Z,2.13
2019-05-29T19:23:32.835Z,2.10
2019-05-29T19:26:01.048Z,2.20
2019-05-29T19:28:29.002Z,2.20
2019-05-29T19:30:58.120Z,2.33
2019-05-29T19:33:27.287Z,2.10
2019-05-29T19:35:55.600Z,2.00
2019-05-29T19:38:23.808Z,2.03
2019-05-29T19:40:51.777Z,2.50
2019-05-29T19:43:19.906Z,2.47
2019-05-29T19:45:48.123Z,2.50
2019-05-29T19:48:17.103Z,2.30
2019-05-29T19:50:45.267Z,2.60
2019-05-29T19:53:13.158Z,2.30
2019-05-29T19:55:41.169Z,2.40
2019-05-29T19:58:09.105Z,2.43
2019-05-29T20:00:37.561Z,3.03
2019-05-29T20:03:05.927Z,2.87
2019-05-29T20:05:34.955Z,3.00
2019-05-29T20:08:03.889Z,2.70
2019-05-29T20:10:33.330Z,2.90
2019-05-29T20:13:01.494Z,2.30
2019-05-29T20:15:30.483Z,2.60
2019-05-29T20:17:58.492Z,2.80
2019-05-29T20:20:26.456Z,2.70
2019-05-29T20:22:54.390Z,4.43
2019-05-29T20:25:22.502Z,2.77
2019-05-29T20:28:03.545Z,3.10
2019-05-29T20:30:21.197Z,2.77
2019-05-29T20:32:50.369Z,2.63
2019-05-29T20:35:18.311Z,2.90
2019-05-29T20:37:47.615Z,2.80
2019-05-29T20:40:15.564Z,2.70
2019-05-29T20:42:43.408Z,3.20
2019-05-29T20:45:11.734Z,3.00
2019-05-29T20:47:40.115Z,3.50
2019-05-29T20:50:11.387Z,3.47
2019-05-29T20:52:39.617Z,3.40
2019-05-29T20:55:08.129Z,3.10
2019-05-29T20:57:36.096Z,3.13
2019-05-29T21:00:06.222Z,3.30
2019-05-29T21:02:34.308Z,3.50
2019-05-29T21:05:02.409Z,2.60
2019-05-29T21:07:32.499Z,3.60
2019-05-29T21:10:02.152Z,3.50
2019-05-29T21:12:30.006Z,3.57
2019-05-29T21:14:58.118Z,3.30
2019-05-29T21:17:26.061Z,3.50
2019-05-29T21:19:54.050Z,3.60
2019-05-29T21:22:28.656Z,2.80
2019-05-29T21:25:08.348Z,3.40
2019-05-29T21:27:35.007Z,3.57
2019-05-29T21:30:04.114Z,3.20
2019-05-29T21:32:32.093Z,3.30
2019-05-29T21:35:00.053Z,3.03
2019-05-29T21:37:28.036Z,3.17
2019-05-29T21:39:55.951Z,3.30
2019-05-29T21:42:23.855Z,3.43
2019-05-29T21:44:51.757Z,2.60
2019-05-29T21:47:19.772Z,2.67
2019-05-29T21:49:47.751Z,2.90
2019-05-29T21:52:15.717Z,3.70
2019-05-29T21:54:43.695Z,3.27
2019-05-29T21:57:11.575Z,3.00
2019-05-29T21:59:40.273Z,2.87
2019-05-29T22:02:09.410Z,2.97
2019-05-29T22:04:38.403Z,3.27
2019-05-29T22:07:06.632Z,2.90
2019-05-29T22:09:34.554Z,3.50
2019-05-29T22:12:03.168Z,3.03
2019-05-29T22:14:31.147Z,3.37
2019-05-29T22:17:01.230Z,3.47
2019-05-29T22:19:29.284Z,3.17
2019-05-29T22:22:06.443Z,3.87
2019-05-29T22:24:34.797Z,3.20
2019-05-29T22:27:02.672Z,3.50
2019-05-29T22:29:30.649Z,3.17
2019-05-29T22:31:59.516Z,3.17
2019-05-29T22:34:27.476Z,3.43
2019-05-29T22:36:55.527Z,3.57
2019-05-29T22:39:23.444Z,4.57
2019-05-29T22:41:51.549Z,4.80
2019-05-29T22:44:19.468Z,4.10
2019-05-29T22:46:47.415Z,3.87
2019-05-29T22:49:15.342Z,4.10
2019-05-29T22:51:43.367Z,4.17
2019-05-29T22:54:11.212Z,4.10
2019-05-29T22:56:39.147Z,4.10
2019-05-29T22:59:06.984Z,4.20
2019-05-29T23:01:34.875Z,4.43
2019-05-29T23:04:02.765Z,4.53
2019-05-29T23:06:30.715Z,4.80
2019-05-29T23:08:58.655Z,5.20
2019-05-29T23:11:26.524Z,5.23
2019-05-29T23:13:54.413Z,5.40
2019-05-29T23:16:22.292Z,6.23
2019-05-29T23:18:50.282Z,5.90
2019-05-29T23:21:18.187Z,6.03
2019-05-29T23:23:46.141Z,6.20
2019-05-29T23:26:14.057Z,6.23
2019-05-29T23:28:41.995Z,7.33
2019-05-29T23:31:10.000Z,6.80
2019-05-29T23:33:37.957Z,5.80
2019-05-29T23:36:05.853Z,6.80
2019-05-29T23:38:33.848Z,6.67
2019-05-29T23:41:03.743Z,6.87
2019-05-29T23:43:31.872Z,7.08
2019-05-29T23:45:59.852Z,7.23
2019-05-29T23:48:28.963Z,8.28
2019-05-29T23:50:57.534Z,8.10
2019-05-29T23:53:25.618Z,8.50
2019-05-29T23:55:54.217Z,8.40
2019-05-29T23:58:22.268Z,7.53
